首页
METAR-TAF:

METAR-TAF

机场 :

塞班國際機場

塞班岛, 马里亚纳群岛, 美国

纬度: 15-07N, 经度: 145-44E, 海拔: 66米

当前天气观测

该预报发布于1小时和14分钟前的15:54 UTC
风速10节,风向
温度 29°C
湿度 74%
气压 1011 hPa
能見度: 16.1公里
少量云层高于2000英尺

METAR: PGSN 171554Z 09010KT 10SM FEW020 29/24 A2985 RMK AO2 SLP129 T02890244

时间: 03:08 (17:08 UTC)

预报

该预报发布于5小时和48分钟前的11:20 UTC
预报有效从17日的 12点(UTC)到 18日的 12点(UTC)
风速12节,风向,有时为20节阵风
能見度: 10公里
散云层高于2000英尺
散云层高于4000英尺
多云层高于12000英尺
附近有阵雨
从 17日的 1400点(UTC)
风速10节,风向,有时为18节阵风
能見度: 9.7公里
散云层高于1500英尺
多云层高于3000英尺
阵雨
从 17日的 2200点(UTC)
风速14节,风向东转东南,有时为22节阵风
能見度: 10公里
散云层高于2000英尺
多云层高于13000英尺
附近有阵雨,

TAF: PGSN 171120Z 1712/1812 09012G20KT P6SM VCSH SCT020 SCT040 BKN120 FM171400 10010G18KT 6SM SHRA SCT015 BKN030 FM172200 12014G22KT P6SM VCSH SCT020 BKN130

超过4000个机场的气象观测和天气预报(METAR&TAF报告)。

可查询的气象台以黄色和红色小点在地图上表示。

将鼠标移到小点上方,可查看气象台名称。

然后点击查看天气观测和预报。

如需切换地图:点击带黑十字的绿色按钮放大地图;点击带横线的绿色按钮缩小地图;或者点击绿色箭头查看邻近地区的地图。


METAR-TAF: